Time;durP1;ratioP1;P1;durP2;ratioP2;P2;SDS_P1;SDS_P2;PMS_P1;PMS_P2;Temp;Humidity;BMP_temperature;BMP_pressure;BME280_temperature;BME280_humidity;BME280_pressure;Samples;Min_cycle;Max_cycle;Signal;HPM_P1;HPM_P2
2022/01/03 00:01:15;;;;;;;1.27;0.70;;;9.80;1.00;10.10;100251.00;;;;5011935;28;20458;-79
2022/01/03 00:03:45;;;;;;;1.40;0.77;;;9.80;1.00;10.20;100249.00;;;;5013791;28;20467;-79
2022/01/03 00:06:14;;;;;;;3.10;1.00;;;9.80;1.00;10.20;100250.00;;;;5016499;28;21013;-78
2022/01/03 00:08:44;;;;;;;4.33;1.27;;;9.90;1.00;217.30;161130.00;;;;5014581;28;20477;-79
2022/01/03 00:11:14;;;;;;;1.97;1.20;;;10.00;1.00;10.40;100251.00;;;;5011090;28;20458;-80
2022/01/03 00:13:45;;;;;;;5.13;1.50;;;10.10;1.00;10.40;100244.00;;;;5020834;28;20458;-78
2022/01/03 00:16:14;;;;;;;3.63;1.60;;;10.10;1.00;10.50;100260.00;;;;5012260;28;20548;-78
2022/01/03 00:18:44;;;;;;;4.90;2.00;;;10.10;1.00;10.50;100252.00;;;;5014673;28;20493;-79
2022/01/03 00:21:15;;;;;;;6.33;2.40;;;10.20;1.00;10.50;68601.00;;;;5014347;28;20455;-78
2022/01/03 00:23:50;;;;;;;6.13;2.40;;;10.40;1.00;10.60;100269.00;;;;5014958;28;20457;-79
2022/01/03 00:26:25;;;;;;;5.20;2.00;;;10.30;1.00;10.70;100270.00;;;;5018524;28;20485;-79
2022/01/03 00:28:59;;;;;;;8.40;2.87;;;10.40;1.00;10.70;100278.00;;;;5017409;28;20464;-79
2022/01/03 00:31:35;;;;;;;7.37;2.50;;;10.40;1.00;10.70;100257.00;;;;5018932;28;20472;-79
2022/01/03 00:34:08;;;;;;;4.57;2.57;;;10.50;1.00;10.70;68645.00;;;;5027619;28;20467;-78
2022/01/03 00:36:37;;;;;;;11.33;3.33;;;10.50;1.00;10.80;100261.00;;;;5022742;28;20469;-79
2022/01/03 00:39:08;;;;;;;5.37;2.10;;;10.60;1.00;10.80;100262.00;;;;5030258;28;21487;-78
2022/01/03 00:41:39;;;;;;;7.03;2.73;;;10.60;1.00;10.90;100267.00;;;;5015860;28;20936;-79
2022/01/03 00:44:09;;;;;;;10.80;3.33;;;10.60;1.00;10.90;100266.00;;;;5030813;28;20453;-79
2022/01/03 00:46:41;;;;;;;8.93;3.47;;;10.80;1.00;10.90;100276.00;;;;5031172;28;20508;-78
2022/01/03 00:49:11;;;;;;;8.30;3.57;;;10.60;1.00;10.80;100269.00;;;;5030655;28;20469;-78
2022/01/03 00:51:39;;;;;;;6.57;2.80;;;10.60;1.00;10.80;100273.00;;;;5021535;28;20463;-78
2022/01/03 00:54:08;;;;;;;6.73;2.60;;;10.50;1.00;10.70;100282.00;;;;5016524;28;20455;-77
2022/01/03 00:56:43;;;;;;;5.43;2.90;;;10.70;1.00;10.70;100288.00;;;;5011357;28;20464;-78
2022/01/03 00:59:14;;;;;;;7.00;2.70;;;10.50;1.00;10.70;100296.00;;;;5019378;28;20483;-79
2022/01/03 01:01:48;;;;;;;8.23;2.77;;;10.50;1.00;10.80;100269.00;;;;5021522;28;20633;-79
2022/01/03 01:04:22;;;;;;;5.77;3.40;;;10.60;1.00;10.80;100281.00;;;;5024146;28;20450;-79
2022/01/03 01:06:58;;;;;;;7.37;3.37;;;10.60;1.00;10.80;100275.00;;;;5020572;28;20475;-79
2022/01/03 01:09:29;;;;;;;10.50;3.73;;;10.60;1.00;10.80;100285.00;;;;5036625;28;20461;-81
2022/01/03 01:12:13;;;;;;;10.10;3.57;;;10.60;1.00;10.80;100283.00;;;;5032828;28;20461;-79
2022/01/03 01:14:51;;;;;;;8.47;4.00;;;10.60;1.00;10.80;68659.00;;;;5032221;28;20454;-79
2022/01/03 01:17:23;;;;;;;6.57;3.30;;;10.60;1.00;52.70;161370.00;;;;5041398;28;20504;-77
2022/01/03 01:19:54;;;;;;;7.90;3.40;;;10.60;1.00;10.80;100286.00;;;;5035582;28;20496;-78
2022/01/03 01:22:23;;;;;;;5.87;3.00;;;10.60;1.00;10.80;100283.00;;;;5041414;28;20528;-77
2022/01/03 01:25:22;;;;;;;7.30;3.30;;;10.60;1.00;10.80;100292.00;;;;5031266;28;20450;-78
2022/01/03 01:27:50;;;;;;;9.50;3.30;;;10.60;1.00;10.80;100285.00;;;;5023437;28;20551;-78
2022/01/03 01:30:26;;;;;;;4.80;2.30;;;10.60;1.00;10.80;100292.00;;;;5026295;28;20564;-80
2022/01/03 01:33:02;;;;;;;3.73;1.90;;;10.30;1.00;10.80;100299.00;;;;5021171;28;20462;-76
2022/01/03 01:35:43;;;;;;;5.83;2.07;;;10.60;1.00;10.80;100297.00;;;;5034352;28;21063;-77
2022/01/03 01:38:17;;;;;;;3.83;1.30;;;10.60;1.00;10.70;100310.00;;;;5022741;28;20449;-76
2022/01/03 01:40:49;;;;;;;3.57;1.23;;;10.50;1.00;10.70;100313.00;;;;5022903;28;20453;-77
2022/01/03 01:43:26;;;;;;;3.90;1.30;;;10.50;1.00;10.70;100308.00;;;;5010834;28;20500;-77
2022/01/03 01:45:58;;;;;;;6.90;1.97;;;10.50;1.00;10.70;100324.00;;;;5033880;28;21041;-77
2022/01/03 01:48:28;;;;;;;5.47;1.40;;;10.50;1.00;10.80;100320.00;;;;5010552;28;20473;-77
2022/01/03 01:51:00;;;;;;;5.63;1.37;;;10.70;1.00;10.70;100343.00;;;;5014180;28;20517;-77
2022/01/03 01:53:29;;;;;;;5.60;1.37;;;10.50;1.00;10.70;100332.00;;;;5019692;28;20552;-77
2022/01/03 01:56:00;;;;;;;3.60;1.20;;;10.50;1.00;10.70;100324.00;;;;5037652;28;20453;-77
2022/01/03 01:58:36;;;;;;;4.13;1.23;;;10.50;1.00;10.70;100330.00;;;;5050459;28;20472;-77
2022/01/03 02:01:08;;;;;;;3.43;1.40;;;10.80;1.00;10.70;100320.00;;;;5049503;28;21037;-78
2022/01/03 02:03:49;;;;;;;7.13;1.90;;;10.60;1.00;10.70;100308.00;;;;5024960;28;20448;-77
2022/01/03 02:06:44;;;;;;;7.07;1.50;;;10.50;1.00;10.60;100313.00;;;;5039787;28;20571;-77
2022/01/03 02:09:21;;;;;;;4.07;1.40;;;10.40;1.00;10.50;100315.00;;;;5020960;28;20484;-77
2022/01/03 02:11:53;;;;;;;5.53;1.40;;;10.40;1.00;10.50;100306.00;;;;5017158;28;20506;-77
2022/01/03 02:14:26;;;;;;;5.80;1.60;;;10.30;1.00;10.50;68581.00;;;;5017737;28;20547;-77
2022/01/03 02:16:57;;;;;;;6.33;1.43;;;10.20;1.00;10.40;100317.00;;;;5011236;28;20838;-76
2022/01/03 02:19:29;;;;;;;2.63;1.17;;;10.10;1.00;10.40;100315.00;;;;5032938;28;20485;-76
2022/01/03 02:21:59;;;;;;;4.77;2.03;;;10.10;1.00;10.30;68551.00;;;;5012578;28;20836;-76
2022/01/03 02:24:35;;;;;;;4.87;1.50;;;10.10;1.00;10.20;100313.00;;;;5012166;28;20954;-76
2022/01/03 02:27:04;;;;;;;8.83;2.00;;;10.00;1.00;10.30;100322.00;;;;5013175;28;20527;-76
2022/01/03 02:29:32;;;;;;;3.27;1.20;;;10.00;1.00;10.20;100324.00;;;;5015170;28;21105;-76
2022/01/03 02:32:00;;;;;;;6.27;1.40;;;10.00;1.00;10.20;68507.00;;;;5026118;28;20535;-75
2022/01/03 02:34:29;;;;;;;5.30;1.40;;;9.90;1.00;10.20;100318.00;;;;5007311;28;20974;-76
2022/01/03 02:37:00;;;;;;;4.70;1.77;;;9.90;1.00;10.10;100319.00;;;;5017522;28;21081;-76
2022/01/03 02:39:31;;;;;;;6.13;1.47;;;9.90;1.00;10.10;100307.00;;;;5024826;28;20470;-75
2022/01/03 02:42:00;;;;;;;4.30;1.60;;;9.80;1.00;10.10;68495.00;;;;5036716;28;20879;-75
2022/01/03 02:44:28;;;;;;;6.93;1.57;;;9.80;1.00;10.00;100300.00;;;;5010518;28;20886;-76
2022/01/03 02:46:57;;;;;;;5.77;1.70;;;9.80;1.00;10.00;100297.00;;;;5014797;28;20470;-75
2022/01/03 02:49:26;;;;;;;6.97;1.67;;;9.70;1.00;10.00;100306.00;;;;5014024;28;20480;-75
2022/01/03 02:51:54;;;;;;;5.37;1.40;;;9.70;1.00;10.00;100316.00;;;;5016914;28;20468;-76
2022/01/03 02:54:24;;;;;;;5.10;1.57;;;9.70;1.00;10.00;100312.00;;;;5036069;28;20463;-75
2022/01/03 02:56:53;;;;;;;5.17;1.77;;;9.70;1.00;10.00;100298.00;;;;5017294;28;20478;-76
2022/01/03 02:59:21;;;;;;;6.37;1.77;;;9.70;1.00;10.00;100306.00;;;;5021182;28;20995;-76
2022/01/03 03:01:50;;;;;;;3.27;1.23;;;9.70;1.00;9.90;68462.00;;;;5012158;28;20555;-75
2022/01/03 03:04:21;;;;;;;8.83;1.60;;;9.60;1.00;9.90;100333.00;;;;5017777;28;20489;-76
2022/01/03 03:06:50;;;;;;;7.77;1.90;;;9.70;1.00;9.90;100174.00;;;;5008141;28;20450;-75
2022/01/03 03:09:21;;;;;;;6.10;1.80;;;9.70;1.00;9.90;100308.00;;;;5007288;28;20480;-76
2022/01/03 03:11:52;;;;;;;5.60;1.80;;;9.60;1.00;9.90;100310.00;;;;5030679;28;20453;-76
2022/01/03 03:14:20;;;;;;;5.83;2.47;;;9.60;1.00;10.00;100314.00;;;;5029748;28;20467;-76
2022/01/03 03:16:49;;;;;;;7.47;1.93;;;9.70;1.00;9.90;100320.00;;;;5031987;28;20472;-75
2022/01/03 03:19:17;;;;;;;6.53;2.20;;;9.70;1.00;9.90;100321.00;;;;5027470;28;20476;-77
2022/01/03 03:21:48;;;;;;;5.97;1.50;;;9.70;1.00;9.90;100322.00;;;;5041510;28;20951;-76
2022/01/03 03:24:16;;;;;;;4.93;1.40;;;9.70;1.00;9.90;100334.00;;;;5029513;28;20452;-76
2022/01/03 03:26:44;;;;;;;4.17;1.40;;;9.70;1.00;9.90;100330.00;;;;5018493;28;20829;-76
2022/01/03 03:29:15;;;;;;;8.83;2.10;;;9.60;1.00;9.90;100323.00;;;;5031721;28;20482;-76
2022/01/03 03:31:43;;;;;;;10.60;2.00;;;9.70;1.00;9.90;100324.00;;;;5014629;28;20465;-76
2022/01/03 03:34:13;;;;;;;10.07;1.80;;;9.70;1.00;9.90;100331.00;;;;5030118;28;20456;-76
2022/01/03 03:36:42;;;;;;;7.00;1.60;;;9.60;1.00;9.90;100344.00;;;;5025255;28;20449;-76
2022/01/03 03:39:10;;;;;;;8.37;1.60;;;9.60;1.00;9.80;100339.00;;;;5012092;28;20481;-76
2022/01/03 03:41:38;;;;;;;5.00;1.73;;;9.60;1.00;9.80;100345.00;;;;5011655;28;20468;-76
2022/01/03 03:44:07;;;;;;;10.23;2.13;;;9.60;1.00;9.80;100332.00;;;;5009561;28;20976;-76
2022/01/03 03:46:36;;;;;;;6.67;1.77;;;9.60;1.00;9.90;100335.00;;;;5027892;28;20489;-76
2022/01/03 03:49:06;;;;;;;10.77;2.73;;;9.60;1.00;9.90;100340.00;;;;5027330;28;20592;-76
2022/01/03 03:51:38;;;;;;;7.90;1.63;;;9.60;1.00;9.90;100334.00;;;;5027701;28;21346;-76
2022/01/03 03:54:06;;;;;;;4.50;1.50;;;9.70;1.00;10.00;100336.00;;;;5036438;28;20472;-76
2022/01/03 03:56:35;;;;;;;5.60;1.67;;;9.70;1.00;10.00;100343.00;;;;5036351;28;20465;-76
2022/01/03 03:59:03;;;;;;;7.20;1.87;;;9.80;1.00;10.10;100335.00;;;;5013893;28;20493;-75
2022/01/03 04:01:33;;;;;;;11.87;3.10;;;9.90;1.00;10.20;100337.00;;;;5026752;28;21096;-77
2022/01/03 04:04:03;;;;;;;5.67;1.57;;;9.90;1.00;10.20;100349.00;;;;5030730;28;20520;-76
2022/01/03 04:06:31;;;;;;;4.13;1.60;;;10.00;1.00;10.30;100348.00;;;;5020604;28;20465;-76
2022/01/03 04:09:01;;;;;;;4.83;1.50;;;10.00;1.00;217.30;161108.00;;;;5042674;28;20489;-77
2022/01/03 04:11:32;;;;;;;10.27;2.50;;;10.00;1.00;10.30;100355.00;;;;5022675;28;20461;-76
2022/01/03 04:14:02;;;;;;;5.70;1.40;;;10.10;1.00;10.30;100342.00;;;;5022187;28;20499;-76
2022/01/03 04:16:31;;;;;;;7.47;2.17;;;10.10;1.00;10.30;100346.00;;;;5031395;28;21347;-76
2022/01/03 04:19:00;;;;;;;3.73;1.70;;;10.10;1.00;10.30;100333.00;;;;5031133;28;20504;-76
2022/01/03 04:21:29;;;;;;;7.47;1.93;;;10.00;1.00;10.20;100326.00;;;;5014657;28;20453;-76
2022/01/03 04:23:58;;;;;;;4.97;1.50;;;9.90;1.00;10.10;68504.00;;;;5020841;28;20456;-76
2022/01/03 04:26:26;;;;;;;4.53;1.30;;;9.90;1.00;10.00;100347.00;;;;5011181;28;20530;-76
2022/01/03 04:28:55;;;;;;;7.27;1.77;;;9.80;1.00;10.00;100348.00;;;;5019485;28;20616;-76
2022/01/03 04:31:24;;;;;;;3.93;1.50;;;9.70;1.00;9.90;100347.00;;;;5019322;28;20460;-76
2022/01/03 04:33:52;;;;;;;6.93;1.80;;;9.70;1.00;9.90;100333.00;;;;5028514;28;20457;-76
2022/01/03 04:36:20;;;;;;;5.00;1.83;;;9.60;1.00;9.80;100341.00;;;;5029724;28;20549;-76
2022/01/03 04:38:51;;;;;;;4.00;1.20;;;9.60;1.00;9.80;100344.00;;;;5028691;28;20471;-76
2022/01/03 04:41:19;;;;;;;5.00;1.43;;;9.60;1.00;9.80;100353.00;;;;5015293;28;20457;-77
2022/01/03 04:43:48;;;;;;;2.83;1.20;;;9.60;1.00;9.90;100344.00;;;;5011664;28;20457;-76
2022/01/03 04:46:16;;;;;;;4.23;1.13;;;9.60;1.00;9.80;100357.00;;;;5024782;28;20466;-76
2022/01/03 04:48:45;;;;;;;4.63;1.50;;;9.60;1.00;9.80;68438.00;;;;5011567;28;20498;-76
2022/01/03 04:51:13;;;;;;;6.07;1.47;;;9.60;1.00;9.80;100357.00;;;;5014011;28;20461;-76
2022/01/03 04:53:42;;;;;;;4.00;1.30;;;9.60;1.00;9.80;100358.00;;;;5029581;28;20480;-76
2022/01/03 04:56:16;;;;;;;4.67;1.30;;;9.50;1.00;9.80;100358.00;;;;5015770;28;20551;-76
2022/01/03 04:58:46;;;;;;;2.43;1.10;;;9.50;1.00;9.80;100354.00;;;;5035886;28;20483;-76
2022/01/03 05:01:14;;;;;;;4.37;1.00;;;9.60;1.00;9.80;100351.00;;;;5030430;28;20452;-76
2022/01/03 05:03:43;;;;;;;3.00;0.93;;;9.60;1.00;9.80;100342.00;;;;5010693;28;20449;-76
2022/01/03 05:06:12;;;;;;;7.20;1.83;;;9.50;1.00;9.80;100349.00;;;;5033574;28;20490;-76
2022/01/03 05:08:42;;;;;;;2.33;1.10;;;9.50;1.00;9.80;100347.00;;;;5032229;28;20540;-76
2022/01/03 05:11:12;;;;;;;6.10;1.17;;;9.50;1.00;9.80;100343.00;;;;5021930;28;20457;-76
2022/01/03 05:13:40;;;;;;;3.27;1.10;;;9.50;1.00;9.80;100348.00;;;;5020131;28;20445;-76
2022/01/03 05:16:09;;;;;;;4.00;1.03;;;9.50;1.00;9.80;68423.00;;;;5032090;28;20995;-76
2022/01/03 05:18:39;;;;;;;3.93;1.20;;;9.50;1.00;9.80;100353.00;;;;5019232;28;20493;-76
2022/01/03 05:21:07;;;;;;;4.17;1.10;;;9.50;1.00;9.90;100334.00;;;;5010704;28;20457;-76
2022/01/03 05:23:38;;;;;;;2.60;0.87;;;9.60;1.00;9.80;100289.00;;;;5009891;28;20530;-76
2022/01/03 05:26:07;;;;;;;2.87;0.90;;;9.60;1.00;9.80;100343.00;;;;5017280;28;20466;-76
2022/01/03 05:28:37;;;;;;;3.83;1.07;;;9.60;1.00;9.80;100347.00;;;;5010989;28;20482;-76
2022/01/03 05:31:06;;;;;;;3.30;1.60;;;9.60;1.00;9.80;100347.00;;;;5011671;28;20472;-76
2022/01/03 05:33:34;;;;;;;3.43;0.90;;;9.60;1.00;9.80;100345.00;;;;5028224;28;20503;-76
2022/01/03 05:36:04;;;;;;;4.80;1.30;;;9.60;1.00;9.80;100341.00;;;;5014100;28;20536;-76
2022/01/03 05:38:32;;;;;;;4.20;1.37;;;9.50;1.00;9.80;100343.00;;;;5018661;28;20509;-76
2022/01/03 05:41:01;;;;;;;7.40;1.63;;;9.50;1.00;9.70;100353.00;;;;5015945;28;20444;-76
2022/01/03 05:43:31;;;;;;;3.27;0.80;;;9.50;1.00;9.80;100362.00;;;;5010444;28;20464;-76
2022/01/03 05:46:00;;;;;;;3.13;1.10;;;9.50;1.00;9.70;68423.00;;;;5023923;28;20580;-76
2022/01/03 05:48:29;;;;;;;5.40;1.37;;;9.50;1.00;9.70;100363.00;;;;5019072;28;20539;-76
2022/01/03 05:50:58;;;;;;;2.60;1.00;;;9.40;1.00;9.70;100326.00;;;;5027319;28;20466;-76
2022/01/03 05:53:27;;;;;;;4.10;1.30;;;9.40;1.00;9.70;100367.00;;;;5011391;28;20523;-76
2022/01/03 05:55:57;;;;;;;3.70;1.23;;;9.40;1.00;9.70;100354.00;;;;5034630;28;20892;-76
2022/01/03 05:58:25;;;;;;;4.87;1.60;;;9.40;1.00;9.80;100359.00;;;;5008604;28;20457;-76
2022/01/03 06:00:54;;;;;;;4.90;1.27;;;9.50;1.00;9.70;100361.00;;;;5010182;28;20493;-76
2022/01/03 06:03:24;;;;;;;4.53;1.40;;;9.40;1.00;9.80;100361.00;;;;5020005;28;20453;-76
2022/01/03 06:06:17;;;;;;;4.23;1.40;;;9.50;1.00;9.80;100369.00;;;;5011113;28;20452;-75
2022/01/03 06:08:47;;;;;;;6.13;1.47;;;9.50;1.00;9.80;100369.00;;;;5018140;28;20498;-76
2022/01/03 06:11:15;;;;;;;5.43;1.60;;;9.50;1.00;9.80;100360.00;;;;5018893;28;20507;-77
2022/01/03 06:13:43;;;;;;;6.30;1.63;;;9.50;1.00;9.70;100354.00;;;;5016818;28;20516;-78
2022/01/03 06:16:14;;;;;;;4.47;1.40;;;9.50;1.00;9.70;100360.00;;;;5006517;28;20527;-76
2022/01/03 06:18:44;;;;;;;5.70;1.50;;;9.40;1.00;52.70;160880.00;;;;5006656;28;20509;-77
2022/01/03 06:21:12;;;;;;;4.30;1.20;;;9.40;1.00;9.70;100367.00;;;;5011390;28;20475;-77
2022/01/03 06:23:46;;;;;;;5.70;1.57;;;9.30;1.00;9.70;100371.00;;;;5017991;28;20459;-77
2022/01/03 06:26:15;;;;;;;4.13;1.10;;;9.30;1.00;9.70;100362.00;;;;5028799;28;20486;-77
2022/01/03 06:28:48;;;;;;;6.17;1.23;;;9.30;1.00;9.70;100109.00;;;;5023190;28;20517;-77
2022/01/03 06:31:19;;;;;;;5.20;1.60;;;9.40;1.00;9.60;100367.00;;;;5028347;28;20456;-77
2022/01/03 06:33:50;;;;;;;6.13;2.00;;;9.30;1.00;9.60;100359.00;;;;5024717;28;20445;-77
2022/01/03 06:36:18;;;;;;;5.27;1.00;;;9.30;1.00;9.60;100352.00;;;;5035519;28;20449;-76
2022/01/03 06:38:53;;;;;;;7.20;1.50;;;9.20;1.00;9.60;100361.00;;;;5031448;28;20476;-76
2022/01/03 06:41:21;;;;;;;3.33;1.07;;;9.20;1.00;9.50;100363.00;;;;5019682;28;20822;-76
2022/01/03 06:43:50;;;;;;;5.23;1.77;;;9.20;1.00;9.50;100350.00;;;;5012760;28;20470;-75
2022/01/03 06:46:19;;;;;;;3.43;1.27;;;9.20;1.00;9.50;100357.00;;;;5032629;28;20454;-76
2022/01/03 06:48:49;;;;;;;2.53;1.03;;;9.20;1.00;9.50;68361.00;;;;5017941;28;20526;-76
2022/01/03 06:51:18;;;;;;;7.60;1.73;;;9.10;1.00;9.40;68349.00;;;;5041252;28;20453;-76
2022/01/03 06:53:47;;;;;;;4.77;1.20;;;9.10;1.00;9.40;68351.00;;;;5016119;28;20446;-76
2022/01/03 06:56:15;;;;;;;10.53;2.93;;;9.10;1.00;9.40;68352.00;;;;5035089;28;20452;-76
2022/01/03 06:58:46;;;;;;;3.50;1.50;;;9.10;1.00;9.40;100369.00;;;;5024679;28;20520;-76
2022/01/03 07:01:15;;;;;;;4.33;1.50;;;9.10;1.00;9.40;100361.00;;;;5034982;28;20514;-76
2022/01/03 07:03:43;;;;;;;6.40;1.70;;;9.00;1.00;9.40;100368.00;;;;5017971;28;21042;-77
2022/01/03 07:06:12;;;;;;;5.90;2.00;;;9.10;1.00;9.40;100371.00;;;;5018934;28;20468;-77
2022/01/03 07:08:41;;;;;;;9.37;1.73;;;9.10;1.00;9.40;100354.00;;;;5017424;28;20476;-77
2022/01/03 07:11:09;;;;;;;5.63;2.10;;;9.00;1.00;9.40;100355.00;;;;5017941;28;20461;-76
2022/01/03 07:13:44;;;;;;;7.40;1.63;;;9.10;1.00;9.40;100353.00;;;;5017209;28;20469;-77
2022/01/03 07:19:00;;;;;;;5.27;1.60;;;9.00;1.00;9.40;100355.00;;;;5018709;28;20864;-77
2022/01/03 07:21:30;;;;;;;13.70;2.53;;;9.00;1.00;9.40;100355.00;;;;5017424;28;20953;-78
2022/01/03 07:24:00;;;;;;;6.77;1.77;;;9.00;1.00;9.40;100345.00;;;;5016230;28;20464;-77
2022/01/03 07:26:29;;;;;;;4.90;1.50;;;9.00;1.00;9.40;100352.00;;;;5016518;28;20460;-76
2022/01/03 07:28:57;;;;;;;4.60;1.73;;;9.00;1.00;9.40;100359.00;;;;5018192;28;20482;-76
2022/01/03 07:31:26;;;;;;;5.50;1.87;;;9.00;1.00;9.40;100357.00;;;;5021444;28;20453;-76
2022/01/03 07:33:54;;;;;;;4.00;1.43;;;9.00;1.00;9.40;100357.00;;;;5020489;28;20462;-76
2022/01/03 07:36:22;;;;;;;7.00;1.50;;;9.00;1.00;9.40;100355.00;;;;5016574;28;20472;-76
2022/01/03 07:38:51;;;;;;;5.37;1.80;;;9.00;1.00;9.40;100345.00;;;;5019108;28;20538;-76
2022/01/03 07:41:20;;;;;;;7.30;2.17;;;9.00;1.00;9.40;100346.00;;;;5019198;28;20555;-76
2022/01/03 07:43:49;;;;;;;6.10;2.00;;;9.00;1.00;9.40;100345.00;;;;5018310;28;20555;-76
2022/01/03 07:46:18;;;;;;;3.87;1.70;;;9.00;1.00;9.40;100351.00;;;;5016715;28;20452;-76
2022/01/03 07:48:46;;;;;;;5.90;1.80;;;9.10;1.00;9.40;100357.00;;;;5017734;28;20468;-76
2022/01/03 07:51:15;;;;;;;3.73;1.80;;;9.10;1.00;9.50;100365.00;;;;5015751;28;20488;-76
2022/01/03 07:53:43;;;;;;;4.77;1.80;;;9.10;1.00;9.50;100362.00;;;;5013907;28;20545;-76
2022/01/03 07:56:12;;;;;;;5.53;1.53;;;9.10;1.00;9.50;100356.00;;;;5031467;28;20453;-76
2022/01/03 07:58:42;;;;;;;6.30;2.17;;;9.10;1.00;9.50;100353.00;;;;5015050;28;20508;-76
2022/01/03 08:01:10;;;;;;;6.77;1.70;;;9.10;1.00;9.50;100356.00;;;;5014090;28;20788;-76
2022/01/03 08:03:39;;;;;;;6.87;1.63;;;9.10;1.00;9.50;100359.00;;;;5014987;28;21363;-77
2022/01/03 08:06:10;;;;;;;7.27;1.73;;;9.10;1.00;9.50;100361.00;;;;5011776;28;20476;-77
2022/01/03 08:08:39;;;;;;;10.33;2.13;;;9.10;1.00;9.50;100365.00;;;;5015106;28;20845;-77
2022/01/03 08:11:07;;;;;;;8.47;2.00;;;9.20;1.00;9.60;100363.00;;;;5012927;28;20495;-76
2022/01/03 08:13:36;;;;;;;6.97;2.47;;;9.20;1.00;9.60;100354.00;;;;5013295;28;21411;-76
2022/01/03 08:16:06;;;;;;;4.20;1.57;;;9.30;1.00;217.30;160827.00;;;;5016562;28;20465;-77
2022/01/03 08:18:35;;;;;;;6.90;2.13;;;9.50;1.00;9.60;100348.00;;;;5014094;28;20546;-77
2022/01/03 08:21:03;;;;;;;6.57;1.97;;;9.30;1.00;9.70;100341.00;;;;5013050;28;20486;-77
2022/01/03 08:23:32;;;;;;;8.33;1.97;;;9.40;1.00;9.70;68413.00;;;;5012243;28;20572;-77
2022/01/03 08:26:00;;;;;;;7.43;2.23;;;9.40;1.00;9.70;100340.00;;;;5014091;28;20480;-76
2022/01/03 08:28:29;;;;;;;7.50;2.10;;;9.40;1.00;9.70;100353.00;;;;5013822;28;20461;-76
2022/01/03 08:30:57;;;;;;;8.77;2.23;;;9.30;1.00;9.70;100344.00;;;;5009812;28;20509;-77
2022/01/03 08:33:27;;;;;;;10.63;2.60;;;9.30;1.00;9.70;100344.00;;;;5029980;28;20457;-77
2022/01/03 08:35:57;;;;;;;7.17;2.23;;;9.30;1.00;9.70;100349.00;;;;5016564;28;20469;-77
2022/01/03 08:38:26;;;;;;;10.70;2.10;;;9.30;1.00;9.70;100333.00;;;;5019352;28;20456;-76
2022/01/03 08:40:55;;;;;;;7.53;2.37;;;9.30;1.00;9.70;100339.00;;;;5029074;28;20548;-77
2022/01/03 08:43:24;;;;;;;5.53;2.03;;;9.30;1.00;217.30;160894.00;;;;5028446;28;20579;-77
2022/01/03 08:45:52;;;;;;;8.70;2.50;;;9.30;1.00;9.80;100343.00;;;;5038560;28;20464;-79
2022/01/03 08:48:21;;;;;;;8.83;2.60;;;9.40;1.00;9.80;68443.00;;;;5030809;28;20480;-78
2022/01/03 08:50:51;;;;;;;8.20;2.40;;;9.40;1.00;9.90;100345.00;;;;5020044;28;20571;-75
2022/01/03 08:53:21;;;;;;;9.77;2.90;;;9.50;1.00;9.90;68459.00;;;;5021842;28;20925;-76
2022/01/03 08:55:49;;;;;;;7.40;3.10;;;9.50;1.00;9.90;100341.00;;;;5031825;28;20488;-76
2022/01/03 08:58:18;;;;;;;11.87;3.03;;;9.50;1.00;9.90;100322.00;;;;5016915;28;20467;-77
2022/01/03 09:00:47;;;;;;;10.97;2.50;;;9.60;1.00;10.00;100336.00;;;;5014663;28;20460;-77
2022/01/03 09:03:16;;;;;;;13.43;2.67;;;9.60;1.00;10.10;100333.00;;;;5016405;28;20487;-77
2022/01/03 09:05:45;;;;;;;8.37;2.10;;;9.70;1.00;10.10;100343.00;;;;5012871;28;20977;-78
2022/01/03 09:08:16;;;;;;;10.00;3.10;;;9.80;1.00;10.10;100338.00;;;;5011985;28;20912;-76
2022/01/03 09:10:45;;;;;;;8.73;2.20;;;9.80;1.00;10.20;100319.00;;;;5014382;28;20485;-76
2022/01/03 09:13:13;;;;;;;9.07;3.10;;;9.90;1.00;217.30;161071.00;;;;5013166;28;20493;-76
2022/01/03 09:15:44;;;;;;;8.37;2.60;;;9.90;1.00;10.20;100325.00;;;;5013222;28;20456;-76
2022/01/03 09:18:13;;;;;;;7.47;2.50;;;9.90;1.00;10.20;100322.00;;;;5021444;28;20465;-76
2022/01/03 09:20:41;;;;;;;12.70;3.17;;;10.00;1.00;10.20;100314.00;;;;5013300;28;20552;-76
2022/01/03 09:23:14;;;;;;;7.47;1.97;;;10.00;1.00;10.30;100319.00;;;;5013692;28;20453;-77
2022/01/03 09:31:17;;;;;;;9.47;2.70;;;10.10;1.00;10.40;68575.00;;;;5015905;28;20483;-77
2022/01/03 09:33:45;;;;;;;5.80;2.10;;;10.10;1.00;10.60;100326.00;;;;5012871;28;21159;-76
2022/01/03 09:36:13;;;;;;;13.30;2.97;;;10.30;1.00;10.70;100336.00;;;;5016220;28;20468;-77
2022/01/03 09:38:42;;;;;;;9.10;2.63;;;10.40;1.00;10.70;100333.00;;;;5024279;28;20549;-77
2022/01/03 09:41:14;;;;;;;11.13;2.87;;;10.40;1.00;10.70;100334.00;;;;5035749;28;20457;-77
2022/01/03 09:43:49;;;;;;;10.97;2.53;;;10.50;1.00;10.70;100120.00;;;;5047570;28;20437;-76
2022/01/03 09:46:23;;;;;;;11.90;2.50;;;10.50;1.00;10.80;100334.00;;;;5035281;28;20448;-76
2022/01/03 09:48:53;;;;;;;14.80;3.10;;;10.50;1.00;10.80;100331.00;;;;5025621;28;20519;-77
2022/01/03 09:51:26;;;;;;;12.93;3.20;;;10.60;1.00;10.90;100335.00;;;;5020460;28;20573;-77
2022/01/03 09:53:57;;;;;;;12.83;2.93;;;10.70;1.00;11.00;68698.00;;;;5021797;28;20467;-77
2022/01/03 09:56:28;;;;;;;10.90;3.10;;;10.70;1.00;11.10;100335.00;;;;5023737;28;20536;-77
2022/01/03 09:58:56;;;;;;;12.43;2.70;;;10.90;1.00;11.20;100313.00;;;;5015910;28;20477;-77
2022/01/03 10:01:25;;;;;;;13.40;2.47;;;11.00;1.00;11.30;100331.00;;;;5014631;28;20483;-77
2022/01/03 10:03:54;;;;;;;18.53;3.17;;;11.10;1.00;11.40;100331.00;;;;5018685;28;20448;-78
2022/01/03 10:06:23;;;;;;;7.20;2.27;;;11.20;1.00;11.40;100333.00;;;;5018355;28;20449;-77
2022/01/03 10:08:53;;;;;;;8.50;2.50;;;11.10;1.00;11.30;100309.00;;;;5018600;28;20484;-77
2022/01/03 10:11:22;;;;;;;8.03;2.03;;;11.10;1.00;11.20;100310.00;;;;5025090;28;20552;-77
2022/01/03 10:13:52;;;;;;;9.57;2.67;;;11.20;1.00;11.20;100314.00;;;;5019347;28;21026;-77
2022/01/03 10:16:21;;;;;;;8.13;2.50;;;10.90;1.00;11.10;100286.00;;;;5039725;28;20454;-78
2022/01/03 10:19:12;;;;;;;14.03;2.60;;;10.90;1.00;11.10;100292.00;;;;5022034;28;20489;-77
2022/01/03 10:21:43;;;;;;;11.27;2.60;;;10.80;1.00;217.30;161456.00;;;;5031550;28;20552;-79
2022/01/03 10:24:14;;;;;;;10.90;2.40;;;10.80;1.00;11.10;100305.00;;;;5026764;28;20459;-78
2022/01/03 10:26:52;;;;;;;11.47;3.63;;;10.90;1.00;11.20;100324.00;;;;5057090;28;20452;-78
2022/01/03 10:29:23;;;;;;;12.03;3.00;;;10.90;1.00;11.30;100309.00;;;;5047201;28;20476;-78
2022/01/03 10:31:54;;;;;;;10.10;2.93;;;11.00;1.00;11.30;100292.00;;;;5042445;28;20527;-77
2022/01/03 10:34:24;;;;;;;10.97;3.20;;;11.00;1.00;11.20;100297.00;;;;5042751;28;20447;-78
2022/01/03 10:36:56;;;;;;;10.70;2.60;;;11.00;1.00;11.20;100303.00;;;;5042430;28;20441;-78
2022/01/03 10:39:26;;;;;;;6.47;2.10;;;10.90;1.00;11.10;100303.00;;;;5052946;28;20477;-78
2022/01/03 10:42:13;;;;;;;8.10;2.60;;;10.90;1.00;11.10;100290.00;;;;5038710;28;20459;-79
2022/01/03 10:44:44;;;;;;;15.53;3.70;;;10.90;1.00;11.10;100308.00;;;;5037646;28;20907;-78
2022/01/03 10:47:16;;;;;;;12.23;2.93;;;10.90;1.00;11.10;100296.00;;;;5026796;28;20993;-77
2022/01/03 10:49:46;;;;;;;12.20;3.10;;;10.90;1.00;11.10;100297.00;;;;5023031;28;20489;-77
2022/01/03 10:52:17;;;;;;;8.40;2.77;;;10.90;1.00;11.20;100303.00;;;;5026152;28;20484;-77
2022/01/03 10:55:09;;;;;;;13.00;3.80;;;10.90;1.00;11.20;100291.00;;;;5037685;28;20988;-78
2022/01/03 10:57:51;;;;;;;12.47;2.90;;;10.90;1.00;11.20;100286.00;;;;5040218;28;20453;-77
2022/01/03 11:00:26;;;;;;;11.13;2.97;;;10.90;1.00;11.20;100286.00;;;;5028935;28;20465;-77
2022/01/03 11:03:21;;;;;;;10.60;2.53;;;10.90;1.00;11.30;100284.00;;;;5021140;28;20977;-77
2022/01/03 11:05:54;;;;;;;10.50;3.80;;;11.00;1.00;11.30;100278.00;;;;5021560;28;20939;-77
2022/01/03 11:11:13;;;;;;;10.57;2.83;;;11.10;1.00;11.30;100279.00;;;;5021820;28;20488;-78
2022/01/03 11:13:43;;;;;;;13.00;4.03;;;11.10;1.00;11.30;100267.00;;;;5017935;28;20568;-77
2022/01/03 11:16:13;;;;;;;10.83;2.60;;;11.00;1.00;11.20;100281.00;;;;5018953;28;20452;-76
2022/01/03 11:18:46;;;;;;;7.83;2.50;;;11.00;1.00;11.20;68743.00;;;;5019429;28;20480;-77
2022/01/03 11:21:21;;;;;;;12.10;2.83;;;10.90;1.00;11.10;100288.00;;;;5020388;28;20457;-77
2022/01/03 11:24:04;;;;;;;13.37;3.70;;;10.90;1.00;11.10;100274.00;;;;5017441;28;20452;-76
2022/01/03 11:26:34;;;;;;;11.03;2.80;;;11.00;1.00;11.00;100261.00;;;;5019830;28;20444;-76
2022/01/03 11:29:04;;;;;;;10.30;2.73;;;10.70;1.00;10.90;100270.00;;;;5033061;28;20485;-78